Time;durP1;ratioP1;P1;durP2;ratioP2;P2;SDS_P1;SDS_P2;PMS_P1;PMS_P2;Temp;Humidity;BMP_temperature;BMP_pressure;BME280_temperature;BME280_humidity;BME280_pressure;Samples;Min_cycle;Max_cycle;Signal;HPM_P1;HPM_P2
2021/07/26 00:02:22;;;;;;;;;12.00;11.00;;;;;20.70;66.06;100641.41;4998234;28;45734;-76
2021/07/26 00:04:47;;;;;;;;;11.50;11.50;;;;;20.62;65.78;100641.78;4989514;28;45708;-77
2021/07/26 00:07:13;;;;;;;;;14.25;11.00;;;;;20.61;65.79;100642.72;4999091;28;45283;-77
2021/07/26 00:09:38;;;;;;;;;11.00;11.00;;;;;20.53;66.12;100644.88;4999861;28;45474;-77
2021/07/26 00:12:05;;;;;;;;;12.50;10.50;;;;;20.51;66.00;100652.09;4998431;28;47210;-76
2021/07/26 00:14:31;;;;;;;;;12.00;11.25;;;;;20.48;66.27;100644.22;5000014;28;45411;-77
2021/07/26 00:16:56;;;;;;;;;12.00;11.00;;;;;20.47;66.02;100653.16;4997996;28;45368;-76
2021/07/26 00:19:21;;;;;;;;;10.25;9.50;;;;;20.47;66.37;100645.13;4998002;28;45504;-77
2021/07/26 00:21:47;;;;;;;;;10.50;9.25;;;;;20.43;66.58;100656.91;4998384;28;48580;-77
2021/07/26 00:24:12;;;;;;;;;10.75;10.75;;;;;20.41;66.53;100650.75;5001256;28;45206;-78
2021/07/26 00:26:38;;;;;;;;;11.25;11.25;;;;;20.41;66.77;100659.66;5003220;28;45317;-77
2021/07/26 00:29:03;;;;;;;;;10.25;10.25;;;;;20.43;67.02;100652.44;5003092;28;45209;-77
2021/07/26 00:31:29;;;;;;;;;10.25;10.00;;;;;20.42;66.49;100647.16;5001409;28;46975;-77
2021/07/26 00:34:28;;;;;;;;;11.50;11.50;;;;;20.40;66.50;100652.59;5002552;28;45486;-77
2021/07/26 00:36:58;;;;;;;;;9.75;9.50;;;;;20.40;66.46;100649.03;5003293;28;45531;-76
2021/07/26 00:39:29;;;;;;;;;13.00;10.67;;;;;20.41;66.91;100653.44;5001333;28;45246;-77
2021/07/26 00:41:55;;;;;;;;;17.00;13.75;;;;;20.41;66.57;100653.44;4997910;28;45644;-77
2021/07/26 00:44:23;;;;;;;;;15.00;14.00;;;;;20.31;66.77;100644.97;4998050;28;45407;-77
2021/07/26 00:46:50;;;;;;;;;13.75;13.50;;;;;20.34;66.61;100655.53;4986735;28;45285;-77
2021/07/26 00:49:17;;;;;;;;;14.75;14.00;;;;;20.23;66.42;100645.34;4999353;28;45257;-77
2021/07/26 00:51:48;;;;;;;;;18.00;18.00;;;;;20.23;66.75;100656.03;4999618;28;46323;-78
2021/07/26 00:54:22;;;;;;;;;20.00;17.50;;;;;20.18;67.02;100649.13;4997871;28;46041;-76
2021/07/26 00:56:50;;;;;;;;;16.75;14.50;;;;;20.20;66.99;100649.94;4998336;28;45180;-77
2021/07/26 00:59:17;;;;;;;;;20.50;18.75;;;;;20.17;67.10;100645.59;4997930;28;45574;-77
2021/07/26 01:01:42;;;;;;;;;21.00;18.50;;;;;20.20;66.98;100645.44;4998916;28;45706;-78
2021/07/26 01:04:08;;;;;;;;;16.75;16.00;;;;;20.18;66.89;100649.13;4997488;28;45435;-77
2021/07/26 01:06:34;;;;;;;;;21.75;20.50;;;;;20.16;66.46;100649.22;5000310;28;45428;-76
2021/07/26 01:09:00;;;;;;;;;23.25;21.25;;;;;20.14;66.96;100648.41;5002952;28;45387;-77
2021/07/26 01:11:26;;;;;;;;;26.75;25.00;;;;;20.05;66.67;100639.00;5001178;28;48235;-77
2021/07/26 01:13:52;;;;;;;;;19.50;16.50;;;;;20.08;66.64;100647.84;5002817;28;45173;-77
2021/07/26 01:16:19;;;;;;;;;27.75;23.50;;;;;20.03;66.64;100651.56;5001566;28;45372;-77
2021/07/26 01:18:46;;;;;;;;;19.00;17.50;;;;;20.01;66.53;100650.75;5000745;28;45345;-77
2021/07/26 01:21:14;;;;;;;;;14.75;14.75;;;;;19.96;66.67;100654.56;5001033;28;48144;-77
2021/07/26 01:23:42;;;;;;;;;17.50;16.25;;;;;19.93;66.77;100650.22;5002232;28;45266;-77
2021/07/26 01:26:10;;;;;;;;;20.25;17.00;;;;;19.92;66.78;100653.00;5002379;28;45224;-77
2021/07/26 01:28:39;;;;;;;;;17.00;14.25;;;;;19.89;66.91;100648.66;5000551;28;45898;-77
2021/07/26 01:31:05;;;;;;;;;19.00;16.00;;;;;19.85;66.71;100647.03;5000457;28;45446;-77
2021/07/26 01:33:31;;;;;;;;;15.50;14.50;;;;;19.79;67.12;100648.16;5001915;28;45503;-77
2021/07/26 01:35:57;;;;;;;;;15.50;12.50;;;;;19.85;66.87;100659.53;5002340;28;45369;-76
2021/07/26 01:38:22;;;;;;;;;14.25;12.25;;;;;19.76;66.81;100642.97;5000983;28;45543;-76
2021/07/26 01:40:57;;;;;;;;;18.75;14.25;;;;;19.77;66.87;100663.38;5018004;28;47344;-77
2021/07/26 01:43:24;;;;;;;;;15.00;14.25;;;;;19.70;67.12;100656.59;5000779;28;45229;-77
2021/07/26 01:46:35;;;;;;;;;15.00;14.00;;;;;19.64;67.00;100656.81;5001336;28;45246;-77
2021/07/26 01:49:09;;;;;;;;;15.50;13.00;;;;;19.61;67.14;100665.81;4974659;28;45435;-77
2021/07/26 01:51:44;;;;;;;;;17.75;15.25;;;;;19.57;66.76;100671.38;4988826;28;45461;-77
2021/07/26 01:54:14;;;;;;;;;14.25;14.00;;;;;19.49;67.02;100658.34;5000345;28;45491;-77
2021/07/26 01:56:42;;;;;;;;;17.25;14.25;;;;;19.47;66.97;100659.34;5000565;28;45367;-77
2021/07/26 01:59:08;;;;;;;;;15.25;14.50;;;;;19.47;67.12;100667.34;5000357;28;45416;-76
2021/07/26 02:01:34;;;;;;;;;16.00;15.00;;;;;19.43;67.42;100671.06;5001445;28;45439;-76
2021/07/26 02:03:59;;;;;;;;;18.50;15.75;;;;;19.42;67.45;100672.88;5000196;28;45353;-77
2021/07/26 02:06:27;;;;;;;;;17.00;15.75;;;;;19.35;67.07;100669.59;4988829;28;45374;-77
2021/07/26 02:08:52;;;;;;;;;15.50;14.25;;;;;19.36;67.48;100679.34;5000651;28;45254;-77
2021/07/26 02:11:22;;;;;;;;;20.00;16.50;;;;;19.32;67.64;100675.03;5000255;28;45969;-77
2021/07/26 02:13:51;;;;;;;;;17.25;16.25;;;;;19.29;67.39;100666.28;5002180;28;45589;-77
2021/07/26 02:16:16;;;;;;;;;16.50;16.00;;;;;19.33;67.27;100679.47;5002123;28;45455;-77
2021/07/26 02:18:42;;;;;;;;;14.00;13.25;;;;;19.27;67.56;100677.06;4997470;28;45307;-77
2021/07/26 02:21:07;;;;;;;;;18.50;16.50;;;;;19.28;67.83;100681.44;5001880;28;46077;-76
2021/07/26 02:23:33;;;;;;;;;16.75;16.00;;;;;19.29;67.32;100693.84;4983763;28;45283;-77
2021/07/26 02:25:58;;;;;;;;;17.50;16.75;;;;;19.22;67.36;100687.06;5001677;28;45332;-77
2021/07/26 02:28:24;;;;;;;;;18.25;17.50;;;;;19.18;67.99;100686.28;4983377;28;45235;-77
2021/07/26 02:30:50;;;;;;;;;15.50;15.50;;;;;19.26;68.02;100698.47;4983533;28;48396;-77
2021/07/26 02:33:15;;;;;;;;;18.50;17.75;;;;;19.24;67.65;100694.97;5001040;28;45187;-77
2021/07/26 02:35:41;;;;;;;;;23.00;18.75;;;;;19.16;68.02;100690.84;4983765;28;45494;-77
2021/07/26 02:38:06;;;;;;;;;18.75;15.75;;;;;19.20;67.65;100694.25;5001755;28;45495;-77
2021/07/26 02:40:32;;;;;;;;;16.25;16.25;;;;;19.13;67.73;100692.75;4984784;28;47658;-77
2021/07/26 02:42:58;;;;;;;;;18.25;15.75;;;;;19.14;67.47;100694.50;5001088;28;45445;-77
2021/07/26 02:45:27;;;;;;;;;17.00;15.50;;;;;19.15;68.09;100704.22;5001505;28;45436;-77
2021/07/26 02:47:53;;;;;;;;;20.75;17.00;;;;;19.11;67.91;100694.59;4982817;28;45568;-76
2021/07/26 02:50:20;;;;;;;;;19.50;16.00;;;;;19.16;68.03;100703.28;4983654;28;46300;-78
2021/07/26 02:52:45;;;;;;;;;21.75;17.00;;;;;19.11;67.59;100692.81;5001244;28;45227;-77
2021/07/26 02:55:12;;;;;;;;;17.00;16.50;;;;;19.05;68.35;100685.03;5001345;28;45301;-77
2021/07/26 02:57:37;;;;;;;;;16.00;15.75;;;;;19.06;68.15;100685.91;5000784;28;45522;-77
2021/07/26 03:00:05;;;;;;;;;17.50;17.25;;;;;19.10;67.82;100691.06;5000603;28;45928;-77
2021/07/26 03:02:32;;;;;;;;;15.75;14.50;;;;;19.08;68.15;100687.56;4983365;28;45458;-78
2021/07/26 03:04:58;;;;;;;;;14.00;14.00;;;;;19.17;67.83;100699.72;5001694;28;45322;-77
2021/07/26 03:07:24;;;;;;;;;19.25;16.00;;;;;19.12;67.83;100691.88;4983558;28;45547;-77
2021/07/26 03:09:49;;;;;;;;;16.00;16.00;;;;;19.22;67.82;100703.06;5000735;28;45284;-77
2021/07/26 03:12:15;;;;;;;;;17.75;17.25;;;;;19.15;67.98;100683.75;4983092;28;45345;-77
2021/07/26 03:14:40;;;;;;;;;17.25;17.00;;;;;19.19;67.66;100695.16;5001197;28;45303;-76
2021/07/26 03:17:05;;;;;;;;;17.00;14.50;;;;;19.20;68.09;100693.38;5000137;28;45231;-77
2021/07/26 03:19:31;;;;;;;;;13.50;13.00;;;;;19.22;67.71;100691.50;4982600;28;47045;-76
2021/07/26 03:22:31;;;;;;;;;17.50;15.25;;;;;19.19;67.84;100687.16;4983144;28;45479;-77
2021/07/26 03:24:57;;;;;;;;;18.00;14.00;;;;;19.18;67.78;100691.63;4982312;28;45332;-76
2021/07/26 03:27:24;;;;;;;;;19.50;17.50;;;;;19.14;67.88;100683.81;4982551;28;45537;-77
2021/07/26 03:29:54;;;;;;;;;15.25;15.25;;;;;19.12;67.71;100680.34;4981767;28;47337;-77
2021/07/26 03:32:19;;;;;;;;;17.75;16.50;;;;;19.15;67.78;100689.06;4982541;28;45461;-77
2021/07/26 03:34:45;;;;;;;;;16.00;15.00;;;;;19.19;67.84;100684.47;4982958;28;45389;-77
2021/07/26 03:37:10;;;;;;;;;18.25;16.00;;;;;19.26;67.69;100690.44;5000481;28;45428;-77
2021/07/26 03:39:35;;;;;;;;;21.00;17.25;;;;;19.24;67.57;100684.28;4999995;28;45447;-77
2021/07/26 03:42:01;;;;;;;;;16.75;16.25;;;;;19.27;67.75;100687.72;5000324;28;45384;-76
2021/07/26 03:44:28;;;;;;;;;18.00;16.00;;;;;19.28;67.55;100685.94;5000131;28;45256;-77
2021/07/26 03:46:53;;;;;;;;;16.75;14.75;;;;;19.23;67.57;100686.09;5000314;28;45175;-76
2021/07/26 03:49:18;;;;;;;;;17.00;15.75;;;;;19.28;67.71;100694.81;4999685;28;45988;-77
2021/07/26 03:51:44;;;;;;;;;18.75;15.25;;;;;19.24;67.84;100687.81;4982425;28;45263;-77
2021/07/26 03:54:09;;;;;;;;;18.50;16.00;;;;;19.27;67.36;100701.09;4982397;28;45278;-77
2021/07/26 03:56:35;;;;;;;;;15.75;15.75;;;;;19.30;67.61;100705.41;4982537;28;46222;-76
2021/07/26 03:59:03;;;;;;;;;14.50;14.25;;;;;19.28;67.43;100702.81;4983054;28;48037;-76
2021/07/26 04:01:28;;;;;;;;;18.75;18.75;;;;;19.31;67.54;100702.69;4982468;28;45465;-77
2021/07/26 04:03:53;;;;;;;;;17.00;16.75;;;;;19.28;67.40;100700.13;4981930;28;45424;-76
2021/07/26 04:06:21;;;;;;;;;16.50;15.00;;;;;19.27;67.61;100698.41;4982123;28;45636;-77
2021/07/26 04:08:49;;;;;;;;;16.50;15.50;;;;;19.28;67.57;100696.59;4998913;28;47301;-76
2021/07/26 04:11:37;;;;;;;;;20.25;18.25;;;;;19.30;67.55;100705.41;4999932;28;45314;-77
2021/07/26 04:14:03;;;;;;;;;17.50;16.00;;;;;19.28;67.64;100702.81;4998972;28;45284;-76
2021/07/26 04:16:29;;;;;;;;;19.50;16.75;;;;;19.27;67.78;100705.53;4999814;28;45311;-77
2021/07/26 04:18:56;;;;;;;;;22.50;19.75;;;;;19.26;67.83;100701.13;4981451;28;46287;-77
2021/07/26 04:21:32;;;;;;;;;20.50;17.00;;;;;19.23;67.58;100706.59;4982095;28;45499;-76
2021/07/26 04:24:02;;;;;;;;;11.50;11.50;;;;;19.25;68.13;100708.28;4982176;28;45214;-79
2021/07/26 04:26:29;;;;;;;;;15.50;15.50;;;;;19.27;67.64;100714.44;4981880;28;45499;-78
2021/07/26 04:28:56;;;;;;;;;14.00;13.75;;;;;19.25;67.64;100700.25;4981965;28;47977;-77
2021/07/26 04:31:23;;;;;;;;;19.25;17.50;;;;;19.26;67.94;100703.78;4999523;28;45427;-76
2021/07/26 04:33:49;;;;;;;;;16.75;15.75;;;;;19.33;67.78;100718.66;4997927;28;45362;-77
2021/07/26 04:36:14;;;;;;;;;18.25;16.25;;;;;19.33;68.01;100714.16;4981747;28;45259;-77
2021/07/26 04:38:40;;;;;;;;;15.25;14.00;;;;;19.30;67.88;100710.72;4981625;28;47002;-77
2021/07/26 04:41:05;;;;;;;;;12.50;12.25;;;;;19.33;67.83;100705.28;4982935;28;45438;-77
2021/07/26 04:43:31;;;;;;;;;15.00;15.00;;;;;19.36;67.57;100710.50;4985361;28;45259;-77
2021/07/26 04:45:56;;;;;;;;;16.25;15.00;;;;;19.31;67.91;100710.69;4985176;28;45547;-78
2021/07/26 04:48:23;;;;;;;;;13.25;13.25;;;;;19.38;67.65;100714.00;4984860;28;48086;-77
2021/07/26 04:50:48;;;;;;;;;13.25;13.25;;;;;19.36;67.98;100714.03;4985525;28;45465;-77
2021/07/26 04:53:14;;;;;;;;;14.25;11.50;;;;;19.39;68.21;100715.72;4985736;28;45456;-78
2021/07/26 04:55:39;;;;;;;;;13.00;13.00;;;;;19.42;68.07;100726.28;4985099;28;45639;-77
2021/07/26 04:58:05;;;;;;;;;11.75;11.75;;;;;19.49;67.73;100733.09;4984890;28;46237;-84
2021/07/26 05:00:31;;;;;;;;;11.00;10.00;;;;;19.45;67.58;100718.13;4984935;28;45460;-81
2021/07/26 05:02:57;;;;;;;;;13.75;12.75;;;;;19.51;67.64;100725.00;4985016;28;45414;-81
2021/07/26 05:05:23;;;;;;;;;13.00;12.50;;;;;19.54;67.91;100724.88;5002854;28;45389;-80
2021/07/26 05:07:48;;;;;;;;;13.25;12.00;;;;;19.60;67.71;100735.34;4984588;28;46087;-81
2021/07/26 05:10:14;;;;;;;;;14.25;13.25;;;;;19.54;67.65;100724.88;4984541;28;45296;-80
2021/07/26 05:12:40;;;;;;;;;15.00;13.25;;;;;19.59;68.03;100726.47;4985040;28;45215;-76
2021/07/26 05:15:06;;;;;;;;;13.00;12.75;;;;;19.67;67.22;100733.28;5002670;28;45464;-77
2021/07/26 05:17:31;;;;;;;;;12.25;12.00;;;;;19.73;67.49;100747.28;4985215;28;45386;-77
2021/07/26 05:19:59;;;;;;;;;15.25;14.00;;;;;19.69;67.32;100729.63;4997574;28;45617;-78
2021/07/26 05:22:25;;;;;;;;;10.25;10.25;;;;;19.73;67.42;100735.72;5002526;28;45487;-78
2021/07/26 05:24:50;;;;;;;;;11.25;9.25;;;;;19.75;67.46;100741.84;5001087;28;45424;-78
2021/07/26 05:27:16;;;;;;;;;14.50;11.25;;;;;19.72;67.63;100742.00;5002213;28;45474;-78
2021/07/26 05:29:42;;;;;;;;;13.25;12.00;;;;;19.74;67.01;100740.13;5000828;28;45496;-78
2021/07/26 05:32:08;;;;;;;;;11.00;10.50;;;;;19.76;67.43;100738.28;5000417;28;45205;-79
2021/07/26 05:34:34;;;;;;;;;14.50;14.00;;;;;19.76;67.57;100743.63;5000989;28;45415;-79
2021/07/26 05:36:59;;;;;;;;;11.00;10.00;;;;;19.77;67.26;100740.00;5001845;28;46364;-79
2021/07/26 05:39:28;;;;;;;;;11.50;10.25;;;;;19.80;67.43;100746.06;5000775;28;45325;-79
2021/07/26 05:41:57;;;;;;;;;14.00;14.00;;;;;19.83;67.55;100747.75;4989855;28;45491;-80
2021/07/26 05:44:22;;;;;;;;;12.50;11.50;;;;;19.86;67.38;100752.09;5001521;28;45254;-78
2021/07/26 05:46:47;;;;;;;;;10.50;10.50;;;;;19.80;67.20;100731.84;5000157;28;47438;-79
2021/07/26 05:49:36;;;;;;;;;12.75;12.25;;;;;19.90;66.98;100743.03;5017199;28;45562;-82
2021/07/26 05:52:02;;;;;;;;;10.25;10.25;;;;;19.96;67.25;100738.28;5016612;28;45388;-80
2021/07/26 05:54:36;;;;;;;;;14.00;13.00;;;;;20.00;66.85;100739.91;5000632;28;45867;-81
2021/07/26 05:57:07;;;;;;;;;11.00;11.00;;;;;20.08;67.10;100738.72;5000590;28;47064;-80
2021/07/26 05:59:33;;;;;;;;;13.50;10.75;;;;;20.22;66.94;100746.97;5000418;28;45469;-86
2021/07/26 06:01:59;;;;;;;;;11.75;10.75;;;;;20.21;66.38;100726.53;5001999;28;45201;-85
2021/07/26 06:04:24;;;;;;;;;11.50;9.75;;;;;20.34;66.28;100741.09;5001751;28;45282;-85
2021/07/26 06:06:53;;;;;;;;;10.00;10.00;;;;;20.31;65.85;100730.53;5002777;28;46160;-85
2021/07/26 06:09:21;;;;;;;;;10.75;10.75;;;;;20.43;65.94;100739.81;5004948;28;45382;-84
2021/07/26 06:11:46;;;;;;;;;11.00;11.00;;;;;20.43;66.13;100743.34;5004484;28;45489;-84
2021/07/26 06:14:13;;;;;;;;;16.25;12.00;;;;;20.48;65.61;100733.31;5001558;28;45494;-85
2021/07/26 06:16:43;;;;;;;;;11.00;9.75;;;;;20.53;65.65;100738.47;5001507;28;47067;-86
2021/07/26 06:19:10;;;;;;;;;12.00;9.75;;;;;20.56;65.86;100741.03;4999653;28;45823;-84
2021/07/26 06:21:45;;;;;;;;;12.75;11.00;;;;;20.65;65.51;100750.44;5000226;28;45452;-85
2021/07/26 06:24:11;;;;;;;;;13.00;11.00;;;;;;;;4999940;28;46203;-79
2021/07/26 06:26:37;;;;;;;;;14.50;12.50;;;;;20.59;65.34;100750.75;5000461;28;48600;-80
2021/07/26 06:29:03;;;;;;;;;11.75;11.75;;;;;20.53;65.85;100748.28;4999885;28;45281;-81
2021/07/26 06:31:28;;;;;;;;;12.25;11.00;;;;;20.49;65.82;100751.09;4999717;28;45279;-81
2021/07/26 06:33:53;;;;;;;;;13.25;13.25;;;;;20.45;65.76;100745.97;5004127;28;45265;-76
2021/07/26 06:36:19;;;;;;;;;20.75;16.25;;;;;20.42;65.26;100744.31;5000331;28;46025;-77
2021/07/26 06:38:44;;;;;;;;;14.50;13.75;;;;;20.46;65.81;100743.22;5002021;28;45281;-78
2021/07/26 06:41:10;;;;;;;;;13.50;10.50;;;;;20.52;65.54;100762.59;5016321;28;45188;-78
2021/07/26 06:43:35;;;;;;;;;12.00;11.00;;;;;20.53;65.99;100757.19;4999804;28;45360;-80
2021/07/26 06:46:05;;;;;;;;;13.25;13.25;;;;;20.54;65.61;100758.09;5001239;28;47398;-79
2021/07/26 06:48:30;;;;;;;;;12.00;11.00;;;;;20.55;65.79;100754.47;4999791;28;45452;-81
2021/07/26 06:50:56;;;;;;;;;9.25;9.25;;;;;20.56;65.78;100765.13;5001174;28;45458;-81
2021/07/26 06:53:21;;;;;;;;;13.25;12.75;;;;;20.47;65.85;100762.81;5003697;28;45404;-80
2021/07/26 06:55:47;;;;;;;;;12.75;10.00;;;;;20.40;66.17;100764.91;5001274;28;46075;-82
2021/07/26 06:58:14;;;;;;;;;7.25;6.75;;;;;20.27;65.79;100763.69;5000911;28;45304;-81
2021/07/26 07:00:40;;;;;;;;;12.00;9.75;;;;;20.21;66.65;100763.97;5002714;28;45297;-79
2021/07/26 07:03:05;;;;;;;;;12.00;10.50;;;;;20.17;66.75;100767.69;5001254;28;45242;-79
2021/07/26 07:05:36;;;;;;;;;10.50;10.50;;;;;20.15;66.97;100772.25;4999502;28;47031;-87
2021/07/26 07:08:04;;;;;;;;;10.75;10.00;;;;;20.17;66.75;100787.28;5000326;28;45375;-84
2021/07/26 07:10:31;;;;;;;;;13.75;12.50;;;;;20.12;66.98;100777.72;4999900;28;45245;-87
2021/07/26 07:12:57;;;;;;;;;10.50;8.75;;;;;20.05;66.92;100778.00;4999023;28;45449;-81
2021/07/26 07:15:23;;;;;;;;;12.75;10.25;;;;;20.09;67.07;100791.22;4999525;28;45540;-83
2021/07/26 07:17:49;;;;;;;;;12.50;11.00;;;;;20.00;67.50;100788.00;5000210;28;45541;-81
2021/07/26 07:20:16;;;;;;;;;14.75;14.00;;;;;20.08;67.54;100784.16;5008958;28;46138;-81
2021/07/26 07:22:41;;;;;;;;;16.00;13.50;;;;;20.08;67.59;100785.00;4996865;28;45614;-81
2021/07/26 07:25:08;;;;;;;;;17.50;14.25;;;;;20.16;67.43;100790.03;4997685;28;47293;-81
2021/07/26 07:27:34;;;;;;;;;16.50;15.75;;;;;20.14;67.43;100790.09;5004746;28;45583;-82
2021/07/26 07:30:12;;;;;;;;;15.50;14.25;;;;;20.20;67.49;100803.19;5000854;28;45225;-81
2021/07/26 07:32:58;;;;;;;;;19.75;15.25;;;;;20.24;67.32;100796.78;4997886;28;45522;-81
2021/07/26 07:35:39;;;;;;;;;17.50;15.00;;;;;20.36;67.44;100798.03;4999700;28;47138;-85
2021/07/26 07:38:11;;;;;;;;;17.75;16.75;;;;;20.39;67.60;100803.25;5000998;28;45303;-90
2021/07/26 07:40:37;;;;;;;;;18.75;16.25;;;;;20.52;66.96;100816.97;5002342;28;45406;-89
2021/07/26 07:43:04;;;;;;;;;15.00;14.75;;;;;20.57;67.25;100806.97;5004477;28;45568;-90
2021/07/26 07:45:32;;;;;;;;;14.75;14.50;;;;;20.65;66.96;100798.59;5007444;28;47213;-91
2021/07/26 07:47:58;;;;;;;;;21.00;18.25;;;;;20.77;66.64;100795.38;5002588;28;45429;-90
2021/07/26 07:50:24;;;;;;;;;19.50;17.50;;;;;20.93;66.16;100799.09;5002463;28;45511;-90
2021/07/26 07:52:57;;;;;;;;;16.25;15.25;;;;;21.01;65.79;100801.44;5002202;28;45542;-90
2021/07/26 07:55:23;;;;;;;;;21.00;15.75;;;;;21.13;65.48;100799.97;5006425;28;48207;-89
2021/07/26 07:57:52;;;;;;;;;19.50;18.75;;;;;21.34;65.21;100806.13;5008048;28;45637;-91
2021/07/26 08:03:13;;;;;;;;;17.25;16.00;;;;;21.81;64.32;100800.28;4970489;28;45731;-89
2021/07/26 08:05:38;;;;;;;;;16.00;15.75;;;;;21.95;64.01;100794.28;5003343;28;47743;-92
2021/07/26 08:08:10;;;;;;;;;18.75;18.00;;;;;22.06;63.16;100807.13;5004207;28;45238;-88
2021/07/26 08:10:35;;;;;;;;;17.75;17.00;;;;;22.02;63.01;100809.06;4998922;28;45261;-82
2021/07/26 08:13:00;;;;;;;;;16.75;16.75;;;;;21.95;62.55;100810.34;4998435;28;45413;-83
2021/07/26 08:15:26;;;;;;;;;19.00;18.00;;;;;21.79;62.79;100811.09;5001270;28;45507;-84
2021/07/26 08:17:51;;;;;;;;;13.75;12.75;;;;;21.86;63.32;100822.38;5001441;28;45941;-84
2021/07/26 08:20:18;;;;;;;;;16.25;15.00;;;;;21.89;63.38;100819.56;5003640;28;46018;-87
2021/07/26 08:22:47;;;;;;;;;14.00;13.50;;;;;21.99;62.84;100823.50;5007499;28;45522;-88
2021/07/26 08:25:14;;;;;;;;;14.00;12.00;;;;;22.10;62.40;100814.91;5011599;28;48179;-87
2021/07/26 08:27:53;;;;;;;;;18.50;15.25;;;;;22.20;62.34;100824.28;5005306;28;45468;-87
2021/07/26 08:30:24;;;;;;;;;16.75;13.25;;;;;22.19;62.07;100813.63;5007835;28;45237;-88
2021/07/26 08:33:22;;;;;;;;;14.50;11.75;;;;;22.20;61.64;100829.63;5007384;28;45531;-89
2021/07/26 08:35:47;;;;;;;;;17.50;17.00;;;;;22.11;61.85;100810.44;4994497;28;47910;-87
2021/07/26 08:38:13;;;;;;;;;11.25;10.25;;;;;22.09;61.50;100823.06;5006154;28;45360;-82
2021/07/26 08:40:38;;;;;;;;;13.75;12.75;;;;;22.06;61.66;100815.19;5021875;28;45300;-88
2021/07/26 08:43:07;;;;;;;;;12.25;12.25;;;;;22.11;61.97;100822.03;5004488;28;45838;-87
2021/07/26 08:45:36;;;;;;;;;12.50;12.25;;;;;22.24;61.57;100822.31;5003994;28;45548;-84
2021/07/26 08:48:04;;;;;;;;;17.50;16.00;;;;;22.31;61.85;100821.03;5009628;28;45458;-87
2021/07/26 08:50:32;;;;;;;;;15.00;13.25;;;;;22.34;61.36;100817.34;5008864;28;45405;-86
2021/07/26 08:52:58;;;;;;;;;17.50;13.50;;;;;22.33;61.37;100811.09;5004711;28;45337;-87
2021/07/26 08:55:24;;;;;;;;;14.75;14.00;;;;;22.38;61.57;100827.84;5002958;28;46436;-86
2021/07/26 08:57:52;;;;;;;;;15.50;14.75;;;;;22.35;61.27;100824.44;5002582;28;45320;-86
2021/07/26 09:00:23;;;;;;;;;15.25;15.25;;;;;22.48;61.45;100843.44;5004829;28;45389;-91
2021/07/26 09:02:52;;;;;;;;;15.00;13.75;;;;;22.49;60.77;100835.31;5002047;28;45417;-85
2021/07/26 09:05:19;;;;;;;;;13.75;12.50;;;;;22.58;60.98;100840.19;5002116;28;45275;-81
2021/07/26 09:07:48;;;;;;;;;18.00;14.75;;;;;22.55;60.86;100835.00;5001610;28;45158;-83
2021/07/26 09:10:23;;;;;;;;;17.50;16.50;;;;;22.52;60.98;100845.03;5000616;28;45807;-81
2021/07/26 09:12:52;;;;;;;;;12.75;12.75;;;;;22.41;61.13;100851.81;5001905;28;45507;-79
2021/07/26 09:15:28;;;;;;;;;18.50;17.00;;;;;22.31;61.85;100857.72;5002109;28;45289;-84
2021/07/26 09:17:57;;;;;;;;;16.25;14.75;;;;;22.17;62.01;100858.41;5005977;28;45281;-85
2021/07/26 09:20:30;;;;;;;;;13.00;13.00;;;;;22.01;62.57;100852.94;5005153;28;45456;-88
2021/07/26 09:23:08;;;;;;;;;20.00;18.50;;;;;21.95;63.25;100853.25;5006471;28;45215;-89
2021/07/26 09:25:34;;;;;;;;;14.25;14.25;;;;;22.02;63.48;100865.38;5001139;28;47006;-89
2021/07/26 09:28:04;;;;;;;;;21.25;18.25;;;;;22.04;63.87;100871.53;5000443;28;45444;-85
2021/07/26 09:30:40;;;;;;;;;16.50;15.00;;;;;22.00;63.81;100864.63;4998456;28;45474;-86
2021/07/26 09:33:35;;;;;;;;;14.00;13.25;;;;;21.93;64.25;100856.00;5000879;28;45442;-87
2021/07/26 09:36:07;;;;;;;;;21.25;21.25;;;;;21.99;64.72;100852.13;4987718;28;46789;-87
2021/07/26 09:38:33;;;;;;;;;15.75;15.75;;;;;22.04;64.49;100858.13;5020385;28;45327;-84
2021/07/26 09:40:58;;;;;;;;;19.25;17.50;;;;;22.13;64.78;100857.69;5003790;28;45233;-90
2021/07/26 09:43:25;;;;;;;;;16.00;14.00;;;;;22.22;65.08;100848.34;5007471;28;45230;-87
2021/07/26 09:45:54;;;;;;;;;20.50;20.50;;;;;22.42;65.23;100847.31;5008162;28;45544;-86
2021/07/26 09:48:22;;;;;;;;;17.50;16.00;;;;;22.50;64.42;100853.16;5004559;28;44791;-92
2021/07/26 09:50:53;;;;;;;;;18.75;15.00;;;;;22.48;64.41;100838.97;5003849;28;45286;-94
2021/07/26 09:53:26;;;;;;;;;17.00;17.00;;;;;22.53;63.58;100841.38;5003252;28;45411;-85
2021/07/26 09:56:15;;;;;;;;;20.25;17.50;;;;;22.64;63.84;100855.09;5002921;28;46316;-88
2021/07/26 09:58:55;;;;;;;;;17.50;16.25;;;;;22.70;63.38;100849.44;5002373;28;45683;-91
2021/07/26 10:01:23;;;;;;;;;19.25;19.00;;;;;22.86;63.32;100855.72;5003533;28;45286;-91
2021/07/26 10:03:52;;;;;;;;;20.00;19.00;;;;;23.03;63.04;100848.63;5004397;28;45345;-88
2021/07/26 10:06:18;;;;;;;;;19.25;17.50;;;;;23.28;62.65;100840.97;5002376;28;46063;-83
2021/07/26 10:08:45;;;;;;;;;20.75;20.75;;;;;23.50;63.27;100858.59;5004245;28;45248;-91
2021/07/26 10:11:10;;;;;;;;;16.25;15.50;;;;;23.71;61.85;100854.72;5013603;28;45249;-92
2021/07/26 10:13:41;;;;;;;;;19.25;16.25;;;;;23.90;61.63;100857.22;5005251;28;45242;-88
2021/07/26 10:16:17;;;;;;;;;18.00;16.75;;;;;23.91;61.07;100839.25;4990768;28;48468;-87
2021/07/26 10:18:47;;;;;;;;;16.75;16.00;;;;;24.02;60.23;100861.00;5004631;28;46168;-85
2021/07/26 10:21:17;;;;;;;;;17.50;17.50;;;;;24.03;60.96;100853.81;5002888;28;45336;-87
2021/07/26 10:24:08;;;;;;;;;19.25;17.25;;;;;23.91;59.72;100848.19;5001620;28;45398;-87
2021/07/26 10:26:37;;;;;;;;;18.00;15.25;;;;;23.73;59.35;100850.09;5002939;28;47317;-88
2021/07/26 10:29:06;;;;;;;;;14.75;14.75;;;;;23.47;59.79;100843.50;5005698;28;45281;-88
2021/07/26 10:31:32;;;;;;;;;19.00;18.00;;;;;23.40;60.17;100860.91;5001815;28;45249;-83
2021/07/26 10:34:13;;;;;;;;;16.50;16.50;;;;;23.32;60.71;100845.19;5003568;28;45359;-82
2021/07/26 10:36:42;;;;;;;;;14.25;13.25;;;;;23.39;60.19;100858.28;5003723;28;45310;-83
2021/07/26 10:39:08;;;;;;;;;15.50;14.00;;;;;23.47;60.61;100848.88;5000172;28;45519;-82
2021/07/26 10:41:43;;;;;;;;;14.50;13.50;;;;;23.69;60.01;100844.97;4999309;28;45400;-86
2021/07/26 10:44:18;;;;;;;;;14.75;12.50;;;;;23.71;59.03;100848.41;4999607;28;45399;-82
2021/07/26 10:49:50;;;;;;;;;11.75;11.50;;;;;23.48;59.08;100858.66;4984281;28;45604;-83
2021/07/26 10:52:28;;;;;;;;;15.25;13.00;;;;;23.41;59.19;100862.63;5001534;28;45444;-84
2021/07/26 10:55:17;;;;;;;;;13.00;12.50;;;;;23.36;59.00;100862.00;4987897;28;45536;-85
2021/07/26 10:57:50;;;;;;;;;14.25;13.75;;;;;23.38;59.63;100864.63;5001230;28;46812;-87
2021/07/26 11:00:21;;;;;;;;;11.25;11.25;;;;;23.46;59.64;100862.38;5004484;28;45247;-86
2021/07/26 11:02:49;;;;;;;;;10.00;8.25;;;;;23.67;58.76;100861.19;5005509;28;45360;-85
2021/07/26 11:06:04;;;;;;;;;9.33;8.67;;;;;23.91;58.78;100847.31;4999937;28;45621;-86
2021/07/26 11:09:32;;;;;;;;;9.33;9.33;;;;;24.23;58.29;100845.44;4995442;28;45541;-85
2021/07/26 11:11:58;;;;;;;;;11.25;11.25;;;;;24.59;57.77;100849.59;4989326;28;45518;-87
2021/07/26 11:14:27;;;;;;;;;10.33;10.33;;;;;24.71;56.66;100845.31;5000298;28;45424;-87
2021/07/26 11:17:03;;;;;;;;;8.67;8.67;;;;;24.77;55.43;100848.47;5001395;28;45685;-87
2021/07/26 11:19:59;;;;;;;;;9.00;8.00;;;;;24.70;55.13;100849.84;4989721;28;45302;-85
2021/07/26 11:22:29;;;;;;;;;7.67;6.67;;;;;24.61;55.85;100853.94;5001534;28;45244;-87
2021/07/26 11:25:05;;;;;;;;;8.33;8.33;;;;;24.50;55.53;100850.16;4987608;28;45443;-85
2021/07/26 11:27:31;;;;;;;;;9.00;8.00;;;;;24.49;55.04;100853.81;4995097;28;44952;-82